createdAt,value
2022-11-23T00:04:12.730Z,5.57
2022-11-23T00:10:14.290Z,5.60
2022-11-23T00:16:17.075Z,6.13
2022-11-23T00:22:18.571Z,6.10
2022-11-23T00:28:20.005Z,6.20
2022-11-23T00:34:21.489Z,5.93
2022-11-23T00:40:23.048Z,6.07
2022-11-23T00:46:26.408Z,5.93
2022-11-23T00:52:27.884Z,6.13
2022-11-23T00:58:29.382Z,5.68
2022-11-23T01:04:31.230Z,5.55
2022-11-23T01:10:34.695Z,5.60
2022-11-23T01:16:37.348Z,6.22
2022-11-23T01:22:38.833Z,6.13
2022-11-23T01:28:40.813Z,5.45
2022-11-23T01:34:42.263Z,5.18
2022-11-23T01:40:43.970Z,5.33
2022-11-23T01:46:45.406Z,5.35
2022-11-23T01:52:46.867Z,5.27
2022-11-23T01:58:49.935Z,6.18
2022-11-23T02:04:52.181Z,5.60
2022-11-23T02:10:54.522Z,5.10
2022-11-23T02:16:59.246Z,5.45
2022-11-23T02:23:04.240Z,4.90
2022-11-23T02:29:11.903Z,5.63
2022-11-23T02:35:13.441Z,5.55
2022-11-23T02:41:17.653Z,5.53
2022-11-23T02:47:20.265Z,5.20
2022-11-23T02:53:21.753Z,5.73
2022-11-23T02:59:23.394Z,5.40
2022-11-23T03:05:26.928Z,5.80
2022-11-23T03:11:28.433Z,5.60
2022-11-23T03:17:30.510Z,5.35
2022-11-23T03:23:32.524Z,5.60
2022-11-23T03:29:37.003Z,6.40
2022-11-23T03:35:45.164Z,5.53
2022-11-23T03:42:00.655Z,5.43
2022-11-23T03:48:06.969Z,5.43
2022-11-23T03:54:08.441Z,6.00
2022-11-23T04:00:10.238Z,5.78
2022-11-23T04:06:14.807Z,5.45
2022-11-23T04:12:16.263Z,5.53
2022-11-23T04:18:18.458Z,6.22
2022-11-23T04:24:21.089Z,5.77
2022-11-23T04:30:23.283Z,5.55
2022-11-23T04:36:28.056Z,6.07
2022-11-23T04:42:30.181Z,5.43
2022-11-23T04:48:35.684Z,5.60
2022-11-23T04:54:38.584Z,5.87
2022-11-23T05:00:43.268Z,5.60
2022-11-23T05:06:46.662Z,6.03
2022-11-23T05:12:48.599Z,5.70
2022-11-23T05:18:51.149Z,5.60
2022-11-23T05:24:53.430Z,6.17
2022-11-23T05:30:58.145Z,6.43
2022-11-23T05:37:00.307Z,6.32
2022-11-23T05:43:02.196Z,6.40
2022-11-23T05:49:04.690Z,6.00
2022-11-23T05:55:10.979Z,6.60
2022-11-23T06:01:13.216Z,7.05
2022-11-23T06:07:15.309Z,7.07
2022-11-23T06:13:46.093Z,6.60
2022-11-23T06:19:47.806Z,6.63
2022-11-23T06:25:49.653Z,7.07
2022-11-23T06:31:56.562Z,6.43
2022-11-23T06:37:59.332Z,6.50
2022-11-23T06:44:01.342Z,6.70
2022-11-23T06:50:14.555Z,7.05
2022-11-23T06:56:18.816Z,6.77
2022-11-23T07:02:21.024Z,5.97
2022-11-23T07:08:23.632Z,7.07
2022-11-23T07:14:25.484Z,6.73
2022-11-23T07:20:30.205Z,6.53
2022-11-23T07:26:31.976Z,7.33
2022-11-23T07:32:33.716Z,6.72
2022-11-23T07:38:35.381Z,7.07
2022-11-23T07:44:37.796Z,6.40
2022-11-23T07:50:42.827Z,6.88
2022-11-23T07:56:44.561Z,7.00
2022-11-23T08:03:11.399Z,7.60
2022-11-23T08:09:07.634Z,7.40
2022-11-23T08:15:09.767Z,8.10
2022-11-23T08:21:11.568Z,7.90
2022-11-23T08:27:13.079Z,6.07
2022-11-23T08:33:14.553Z,6.28
2022-11-23T08:39:17.362Z,6.05
2022-11-23T08:45:18.831Z,6.87
2022-11-23T08:51:22.789Z,6.82
2022-11-23T08:57:24.270Z,6.63
2022-11-23T09:03:25.734Z,6.70
2022-11-23T09:09:27.204Z,6.47
2022-11-23T09:15:28.717Z,6.47
2022-11-23T09:21:33.342Z,6.53
2022-11-23T09:27:34.840Z,6.57
2022-11-23T09:33:36.304Z,5.97
2022-11-23T09:39:37.827Z,6.22
2022-11-23T09:45:47.979Z,5.93
2022-11-23T09:51:51.008Z,5.60
2022-11-23T09:57:56.619Z,5.93
2022-11-23T10:03:58.147Z,5.30
2022-11-23T10:10:10.074Z,5.50
2022-11-23T10:16:21.521Z,5.23
2022-11-23T10:22:30.914Z,4.72
2022-11-23T10:28:32.572Z,4.77
2022-11-23T10:34:56.851Z,4.60
2022-11-23T10:41:09.456Z,4.10
2022-11-23T10:47:11.041Z,3.50
2022-11-23T10:53:19.744Z,3.15
2022-11-23T10:59:27.512Z,3.10
2022-11-23T11:11:58.381Z,3.45
2022-11-23T11:17:59.901Z,2.80
2022-11-23T11:24:06.011Z,3.45
2022-11-23T11:30:20.260Z,2.90
2022-11-23T11:36:21.993Z,2.70
2022-11-23T11:42:38.890Z,2.55
2022-11-23T11:48:40.333Z,2.90
2022-11-23T11:54:47.099Z,3.00
2022-11-23T12:00:49.128Z,3.50
2022-11-23T12:06:54.252Z,3.45
2022-11-23T12:12:58.750Z,3.13
2022-11-23T12:19:14.331Z,3.20
2022-11-23T12:25:33.097Z,3.35
2022-11-23T12:31:46.463Z,3.27
2022-11-23T12:37:53.921Z,3.03
2022-11-23T12:44:04.322Z,2.83
2022-11-23T12:50:14.517Z,2.90
2022-11-23T12:56:34.847Z,3.03
2022-11-23T13:02:53.189Z,2.63
2022-11-23T13:09:00.968Z,2.85
2022-11-23T13:15:15.280Z,2.70
2022-11-23T13:21:35.296Z,3.10
2022-11-23T13:27:48.666Z,2.90
2022-11-23T13:33:51.038Z,3.10
2022-11-23T13:39:58.806Z,3.22
2022-11-23T13:46:09.463Z,2.88
2022-11-23T13:52:23.202Z,2.90
2022-11-23T13:58:24.766Z,3.05
2022-11-23T14:04:28.246Z,3.57
2022-11-23T14:10:30.844Z,3.65
2022-11-23T14:16:52.844Z,4.47
2022-11-23T14:23:00.021Z,4.63
2022-11-23T14:29:12.509Z,4.53
2022-11-23T14:35:24.031Z,4.43
2022-11-23T14:41:27.574Z,4.82
2022-11-23T14:47:30.585Z,3.90
2022-11-23T14:53:36.050Z,3.80
2022-11-23T14:59:39.019Z,3.70
2022-11-23T15:05:40.693Z,3.90
2022-11-23T15:11:42.301Z,3.85
2022-11-23T15:17:53.047Z,3.70
2022-11-23T15:23:57.010Z,3.40
2022-11-23T15:29:59.746Z,3.80
2022-11-23T15:36:02.949Z,3.23
2022-11-23T15:42:04.672Z,3.70
2022-11-23T15:48:10.521Z,3.13
2022-11-23T15:54:15.396Z,3.03
2022-11-23T16:00:24.862Z,3.13
2022-11-23T16:06:35.022Z,3.23
2022-11-23T16:12:46.062Z,3.72
2022-11-23T16:18:48.947Z,4.80
2022-11-23T16:24:51.749Z,4.27
2022-11-23T16:30:53.341Z,4.10
2022-11-23T16:36:55.972Z,5.10
2022-11-23T16:42:57.534Z,5.22
2022-11-23T16:49:00.193Z,4.00
2022-11-23T16:55:01.646Z,4.27
2022-11-23T17:01:03.758Z,5.05
2022-11-23T17:07:05.495Z,5.77
2022-11-23T17:13:11.116Z,6.22
2022-11-23T17:19:16.409Z,5.72
2022-11-23T17:25:18.140Z,5.83
2022-11-23T17:31:19.797Z,6.15
2022-11-23T17:37:22.527Z,6.50
2022-11-23T17:43:24.081Z,7.30
2022-11-23T17:49:28.152Z,6.28
2022-11-23T17:55:29.621Z,4.43
2022-11-23T18:01:31.347Z,4.93
2022-11-23T18:07:32.919Z,4.30
2022-11-23T18:13:34.689Z,5.10
2022-11-23T18:19:36.268Z,4.93
2022-11-23T18:25:37.736Z,5.30
2022-11-23T18:31:39.314Z,4.05
2022-11-23T18:37:41.213Z,5.17
2022-11-23T18:43:43.598Z,4.15
2022-11-23T18:49:45.657Z,4.55
2022-11-23T18:55:47.185Z,4.47
2022-11-23T19:01:48.699Z,4.10
2022-11-23T19:07:51.455Z,4.10
2022-11-23T19:13:54.447Z,6.15
2022-11-23T19:19:56.087Z,4.18
2022-11-23T19:26:01.252Z,3.73
2022-11-23T19:32:02.917Z,4.22
2022-11-23T19:38:04.413Z,4.30
2022-11-23T19:44:06.748Z,4.13
2022-11-23T19:50:08.803Z,4.30
2022-11-23T19:56:14.650Z,4.40
2022-11-23T20:02:25.888Z,4.82
2022-11-23T20:08:28.171Z,4.80
2022-11-23T20:14:30.370Z,4.97
2022-11-23T20:20:31.938Z,5.28
2022-11-23T20:26:34.237Z,4.90
2022-11-23T20:32:35.774Z,5.00
2022-11-23T20:38:38.278Z,4.83
2022-11-23T20:44:40.178Z,5.10
2022-11-23T20:50:42.098Z,5.03
2022-11-23T20:56:43.805Z,4.63
2022-11-23T21:02:48.075Z,5.55
2022-11-23T21:08:50.138Z,5.00
2022-11-23T21:14:52.679Z,4.82
2022-11-23T21:20:54.504Z,5.13
2022-11-23T21:26:56.015Z,5.17
2022-11-23T21:32:57.617Z,5.47
2022-11-23T21:39:01.155Z,5.57
2022-11-23T21:45:03.409Z,5.95
2022-11-23T21:51:10.585Z,5.60
2022-11-23T21:57:12.113Z,5.27
2022-11-23T22:03:13.753Z,5.45
2022-11-23T22:09:15.356Z,5.33
2022-11-23T22:15:16.840Z,5.50
2022-11-23T22:21:19.200Z,5.20
2022-11-23T22:27:21.858Z,5.20
2022-11-23T22:33:23.370Z,5.28
2022-11-23T22:39:24.812Z,5.87
2022-11-23T22:45:26.293Z,5.18
2022-11-23T22:51:28.646Z,5.50
2022-11-23T22:57:30.149Z,4.80
2022-11-23T23:03:31.726Z,5.25
2022-11-23T23:09:33.224Z,5.80
2022-11-23T23:15:34.660Z,5.20
2022-11-23T23:21:36.147Z,5.50
2022-11-23T23:27:37.601Z,5.93
2022-11-23T23:33:39.063Z,5.40
2022-11-23T23:39:40.519Z,5.83
2022-11-23T23:45:42.027Z,5.32
2022-11-23T23:51:47.549Z,5.25
2022-11-23T23:57:51.688Z,5.03
